首页
METAR-TAF:

METAR-TAF

机场 :

萨尔茨堡沃尔夫冈·阿马多伊斯·莫扎特机场

萨尔茨堡, 奥地利

纬度: 47-48N, 经度: 013-00E, 海拔: 430米

当前天气观测

该预报发布于32分钟前的15:50 UTC
风速2节,风向多变
温度 0°C
湿度 93%
气压 1043 hPa
能见度10公里或以上
少量云层高于1500英尺
散云层高于2200英尺

METAR: LOWS 201550Z VRB02KT 9999 FEW015 SCT022 M00/M01 Q1043 R15/29//95 NOSIG

时间: 17:22 (16:22 UTC)

预报

该预报发布于5小时和7分钟前的11:15 UTC
预报有效从20日的 12点(UTC)到 21日的 12点(UTC)
风速3节,风向南转南东
能见度10公里或以上
散云层高于2500英尺
多云层高于4500英尺
成为
从 20日的 12点(UTC)到 20日的 14点(UTC)
散云层高于4000英尺
成为
从 20日的 18点(UTC)到 20日的 20点(UTC)
能見度: 4000
轻雾
短暂存在
从 20日的 22点(UTC)到 21日的 09点(UTC)
能見度: 1300
碎片雾
几率 40% :
短暂存在
从 21日的 05点(UTC)到 21日的 09点(UTC)
能見度: 0400
散云层高于300英尺
多云层高于400英尺
冻雾
成为
从 21日的 09点(UTC)到 21日的 11点(UTC)
能見度: 8000

TAF: LOWS 201115Z 2012/2112 15003KT 9999 SCT025 BKN045 TX01/2014Z TNM06/2106Z BECMG 2012/2014 SCT040 BECMG 2018/2020 4000 BR NSC TEMPO 2022/2109 1300 BCFG NSC PROB40 TEMPO 2105/2109 0400 FZFG SCT003 BKN004 BECMG 2109/2111 8000

超过4000个机场的气象观测和天气预报(METAR&TAF报告)。

可查询的气象台以黄色和红色小点在地图上表示。

将鼠标移到小点上方,可查看气象台名称。

然后点击查看天气观测和预报。

如需切换地图:点击带黑十字的绿色按钮放大地图;点击带横线的绿色按钮缩小地图;或者点击绿色箭头查看邻近地区的地图。


METAR-TAF: